Time;durP1;ratioP1;P1;durP2;ratioP2;P2;SDS_P1;SDS_P2;PMS_P1;PMS_P2;Temp;Humidity;BMP_temperature;BMP_pressure;BME280_temperature;BME280_humidity;BME280_pressure;Samples;Min_cycle;Max_cycle;Signal;HPM_P1;HPM_P2
2022/04/17 00:02:11;;;;;;;19.65;8.63;;;;;;;-141.50;100.00;63355.56;5111206;28;20052;-78
2022/04/17 00:04:38;;;;;;;17.95;8.10;;;;;;;-141.50;100.00;63355.56;5095631;28;20115;-80
2022/04/17 00:07:04;;;;;;;18.77;7.75;;;;;;;-141.50;100.00;63355.56;5088027;28;20044;-79
2022/04/17 00:09:32;;;;;;;13.70;7.75;;;;;;;-141.50;100.00;63355.56;5092315;28;20869;-80
2022/04/17 00:12:01;;;;;;;15.07;7.63;;;;;;;-141.50;100.00;63355.56;5096044;28;20048;-78
2022/04/17 00:14:27;;;;;;;17.45;8.45;;;;;;;-141.50;100.00;63355.56;5092054;28;20479;-80
2022/04/17 00:16:55;;;;;;;17.00;7.70;;;;;;;-141.50;100.00;63355.56;5090783;28;20109;-79
2022/04/17 00:19:22;;;;;;;13.48;7.47;;;;;;;-141.50;100.00;63355.56;5090010;28;20056;-80
2022/04/17 00:21:49;;;;;;;17.98;8.38;;;;;;;-141.50;100.00;63355.56;5097893;28;20044;-84
2022/04/17 00:24:16;;;;;;;22.00;9.55;;;;;;;-141.50;100.00;63355.56;5103173;28;20135;-84
2022/04/17 00:26:42;;;;;;;26.98;11.10;;;;;;;-141.50;100.00;63355.56;5106497;28;20047;-81
2022/04/17 00:29:09;;;;;;;19.65;8.90;;;;;;;-141.50;100.00;63355.56;5098760;28;20079;-78
2022/04/17 00:31:35;;;;;;;20.98;9.00;;;;;;;-141.50;100.00;63355.56;5098859;28;20085;-81
2022/04/17 00:34:02;;;;;;;15.30;8.18;;;;;;;-141.50;100.00;63355.56;5099467;28;20058;-81
2022/04/17 00:36:29;;;;;;;17.42;8.55;;;;;;;-141.50;100.00;63355.56;5100567;28;20128;-83
2022/04/17 00:38:56;;;;;;;15.20;8.25;;;;;;;-141.50;100.00;63355.56;5103061;28;20078;-80
2022/04/17 00:41:22;;;;;;;19.48;9.20;;;;;;;-141.50;100.00;63355.56;5100983;28;20128;-82
2022/04/17 00:43:49;;;;;;;21.73;9.73;;;;;;;-141.50;100.00;63355.56;5103377;28;20056;-79
2022/04/17 00:46:15;;;;;;;20.48;9.15;;;;;;;-141.50;100.00;63355.56;5103501;28;20056;-82
2022/04/17 00:48:42;;;;;;;19.75;9.68;;;;;;;-141.50;100.00;63355.56;5104034;28;20075;-80
2022/04/17 00:51:09;;;;;;;20.73;9.77;;;;;;;-141.50;100.00;63355.56;5102899;28;20064;-80
2022/04/17 00:53:36;;;;;;;20.60;10.18;;;;;;;-141.50;100.00;63355.56;5105605;28;20048;-81
2022/04/17 00:56:03;;;;;;;21.10;9.88;;;;;;;-141.50;100.00;63355.56;5105598;28;20074;-83
2022/04/17 00:58:32;;;;;;;17.58;9.30;;;;;;;-141.50;100.00;63355.56;5105967;28;20094;-80
2022/04/17 01:00:59;;;;;;;19.42;9.85;;;;;;;-141.50;100.00;63355.56;5104144;28;20099;-80
2022/04/17 01:03:28;;;;;;;19.13;9.40;;;;;;;-141.50;100.00;63355.56;5100987;28;20051;-79
2022/04/17 01:05:55;;;;;;;19.23;9.50;;;;;;;-141.50;100.00;63355.56;5094836;28;20052;-79
2022/04/17 01:08:21;;;;;;;14.23;8.50;;;;;;;-141.50;100.00;63355.56;5100880;28;20056;-80
2022/04/17 01:10:48;;;;;;;21.75;9.30;;;;;;;-141.50;100.00;63355.56;5097608;28;20107;-83
2022/04/17 01:13:17;;;;;;;15.95;9.05;;;;;;;-141.50;100.00;63355.56;5097498;28;20044;-78
2022/04/17 01:15:44;;;;;;;16.02;8.77;;;;;;;-141.50;100.00;63355.56;5095950;28;20076;-81
2022/04/17 01:18:11;;;;;;;16.98;8.70;;;;;;;-141.50;100.00;63355.56;5099188;28;20054;-79
2022/04/17 01:20:38;;;;;;;13.88;8.07;;;;;;;-141.50;100.00;63355.56;5100681;28;20085;-79
2022/04/17 01:28:55;;;;;;;15.85;8.25;;;;;;;-141.50;100.00;63355.56;5078924;28;20168;-79
2022/04/17 01:31:27;;;;;;;13.25;7.60;;;;;;;-141.50;100.00;63355.56;5087128;28;20113;-80
2022/04/17 01:33:53;;;;;;;18.40;8.05;;;;;;;-141.50;100.00;63355.56;5102731;28;20052;-79
2022/04/17 01:36:20;;;;;;;16.90;7.95;;;;;;;-141.50;100.00;63355.56;5102555;28;20109;-80
2022/04/17 01:38:46;;;;;;;16.23;8.63;;;;;;;-141.50;100.00;63355.56;5103166;28;20109;-80
2022/04/17 01:41:15;;;;;;;19.05;8.52;;;;;;;-141.50;100.00;63355.56;5100581;28;20120;-80
2022/04/17 01:43:42;;;;;;;16.60;8.02;;;;;;;-141.50;100.00;63355.56;5101319;28;20188;-79
2022/04/17 01:46:08;;;;;;;15.85;8.07;;;;;;;-141.50;100.00;63355.56;5100543;28;20076;-81
2022/04/17 01:48:35;;;;;;;15.23;8.00;;;;;;;-141.50;100.00;63355.56;5101885;28;20044;-82
2022/04/17 01:51:01;;;;;;;18.88;7.75;;;;;;;-141.50;100.00;63355.56;5101798;28;20079;-79
2022/04/17 01:53:28;;;;;;;13.43;7.72;;;;;;;-141.50;100.00;63355.56;5098081;28;20059;-79
2022/04/17 01:55:54;;;;;;;18.13;8.35;;;;;;;-141.50;100.00;63355.56;5094868;28;20103;-79
2022/04/17 01:58:21;;;;;;;15.82;7.95;;;;;;;-141.50;100.00;63355.56;5097487;28;20048;-79
2022/04/17 02:00:47;;;;;;;18.65;8.00;;;;;;;-141.50;100.00;63355.56;5095152;28;20123;-80
2022/04/17 02:03:14;;;;;;;15.88;8.38;;;;;;;-141.50;100.00;63355.56;5095443;28;20080;-81
2022/04/17 02:05:40;;;;;;;19.98;8.25;;;;;;;-141.50;100.00;63355.56;5093499;28;20097;-79
2022/04/17 02:08:07;;;;;;;14.88;8.15;;;;;;;-141.50;100.00;63355.56;5093747;28;20413;-78
2022/04/17 02:10:34;;;;;;;14.32;8.25;;;;;;;-141.50;100.00;63355.56;5096992;28;20044;-79
2022/04/17 02:13:00;;;;;;;17.65;8.35;;;;;;;-141.50;100.00;63355.56;5099855;28;20048;-79
2022/04/17 02:15:27;;;;;;;13.68;7.57;;;;;;;-141.50;100.00;63355.56;5101893;28;20078;-79
2022/04/17 02:17:53;;;;;;;17.45;8.35;;;;;;;-141.50;100.00;63355.56;5101011;28;20471;-80
2022/04/17 02:20:20;;;;;;;13.93;7.68;;;;;;;-141.50;100.00;63355.56;5102406;28;20505;-82
2022/04/17 02:22:46;;;;;;;15.05;7.47;;;;;;;-141.50;100.00;63355.56;5101080;28;20080;-82
2022/04/17 02:25:13;;;;;;;13.48;7.53;;;;;;;-141.50;100.00;63355.56;5111459;28;20048;-81
2022/04/17 02:27:40;;;;;;;16.05;8.20;;;;;;;-141.50;100.00;63355.56;5115887;28;20094;-82
2022/04/17 02:30:08;;;;;;;15.55;8.68;;;;;;;-141.50;100.00;63355.56;5113084;28;20044;-80
2022/04/17 02:32:35;;;;;;;18.90;7.95;;;;;;;-141.50;100.00;63355.56;5113497;28;20032;-83
2022/04/17 02:35:04;;;;;;;14.02;7.57;;;;;;;-141.50;100.00;63355.56;5117053;28;20069;-83
2022/04/17 02:37:31;;;;;;;17.75;8.23;;;;;;;-141.50;100.00;63355.56;5100599;28;20047;-81
2022/04/17 02:39:58;;;;;;;15.48;7.95;;;;;;;-141.50;100.00;63355.56;5094382;28;20140;-78
2022/04/17 02:42:24;;;;;;;16.15;8.02;;;;;;;-141.50;100.00;63355.56;5094313;28;20051;-80
2022/04/17 02:44:51;;;;;;;33.92;10.30;;;;;;;-141.50;100.00;63355.56;5093838;28;20073;-80
2022/04/17 02:50:02;;;;;;;34.03;11.30;;;;;;;-141.50;100.00;63355.56;5094867;28;20383;-80
2022/04/17 02:52:29;;;;;;;54.70;15.80;;;;;;;-141.50;100.00;63355.56;5093137;28;20048;-80
2022/04/17 02:54:55;;;;;;;48.20;13.77;;;;;;;-141.50;100.00;63355.56;5092986;28;20052;-78
2022/04/17 02:57:22;;;;;;;34.13;12.13;;;;;;;-141.50;100.00;63355.56;5095054;28;20154;-77
2022/04/17 02:59:48;;;;;;;37.15;11.65;;;;;;;-141.50;100.00;63355.56;5092755;28;20151;-79
2022/04/17 03:07:47;;;;;;;21.95;9.77;;;;;;;-141.50;100.00;63355.56;5092636;28;20047;-79
2022/04/17 03:10:13;;;;;;;19.65;10.10;;;;;;;-141.50;100.00;63355.56;5092426;28;20184;-79
2022/04/17 03:12:40;;;;;;;18.05;9.45;;;;;;;-141.50;100.00;63355.56;5094779;28;20561;-80
2022/04/17 03:15:10;;;;;;;23.75;10.38;;;;;;;-141.50;100.00;63355.56;5097534;28;20048;-80
2022/04/17 03:17:38;;;;;;;23.08;11.02;;;;;;;-141.50;100.00;63355.56;5097798;28;20048;-80
2022/04/17 03:20:05;;;;;;;22.42;10.88;;;;;;;-141.50;100.00;63355.56;5097549;28;20570;-80
2022/04/17 03:22:34;;;;;;;22.23;10.57;;;;;;;-141.50;100.00;63355.56;5093329;28;20138;-79
2022/04/17 03:25:02;;;;;;;20.05;10.85;;;;;;;-141.50;100.00;63355.56;5095171;28;20671;-80
2022/04/17 03:27:28;;;;;;;23.10;11.20;;;;;;;-141.50;100.00;63355.56;5097444;28;20052;-79
2022/04/17 03:29:55;;;;;;;22.30;11.35;;;;;;;-141.50;100.00;63355.56;5095351;28;20048;-78
2022/04/17 03:32:21;;;;;;;23.23;10.85;;;;;;;-141.50;100.00;63355.56;5092892;28;20079;-78
2022/04/17 03:34:48;;;;;;;19.77;11.18;;;;;;;-141.50;100.00;63355.56;5092545;28;20313;-80
2022/04/17 03:37:15;;;;;;;21.48;11.15;;;;;;;-141.50;100.00;63355.56;5092089;28;20079;-80
2022/04/17 03:39:42;;;;;;;24.48;11.05;;;;;;;-141.50;100.00;63355.56;5107818;28;20089;-84
2022/04/17 03:42:08;;;;;;;21.08;10.88;;;;;;;-141.50;100.00;63355.56;5110246;28;20032;-81
2022/04/17 03:44:35;;;;;;;22.27;9.90;;;;;;;-141.50;100.00;63355.56;5106796;28;20044;-80
2022/04/17 03:47:02;;;;;;;23.10;10.40;;;;;;;-141.50;100.00;63355.56;5100501;28;20808;-80
2022/04/17 03:49:31;;;;;;;20.25;10.02;;;;;;;-141.50;100.00;63355.56;5099262;28;20052;-79
2022/04/17 03:52:00;;;;;;;22.50;10.65;;;;;;;-141.50;100.00;63355.56;5098942;28;20079;-80
2022/04/17 03:54:27;;;;;;;20.95;10.88;;;;;;;-141.50;100.00;63355.56;5081056;28;20070;-81
2022/04/17 03:56:53;;;;;;;17.50;9.63;;;;;;;-141.50;100.00;63355.56;5099034;28;20044;-78
2022/04/17 03:59:20;;;;;;;22.25;9.65;;;;;;;-141.50;100.00;63355.56;5097855;28;20417;-79
2022/04/17 04:01:46;;;;;;;19.40;8.57;;;;;;;-141.50;100.00;63355.56;5095815;28;20064;-79
2022/04/17 04:04:14;;;;;;;18.05;9.27;;;;;;;-141.50;100.00;63355.56;5095098;28;20043;-80
2022/04/17 04:06:42;;;;;;;18.35;8.57;;;;;;;-141.50;100.00;63355.56;5095649;28;20094;-80
2022/04/17 04:09:08;;;;;;;18.85;9.25;;;;;;;-141.50;100.00;63355.56;5096108;28;20052;-81
2022/04/17 04:11:35;;;;;;;16.10;8.40;;;;;;;-141.50;100.00;63355.56;5094533;28;20044;-79
2022/04/17 04:14:03;;;;;;;20.20;8.98;;;;;;;-141.50;100.00;63355.56;5100493;28;20048;-79
2022/04/17 04:16:30;;;;;;;18.73;8.75;;;;;;;-141.50;100.00;63355.56;5098127;28;20074;-81
2022/04/17 04:18:56;;;;;;;16.65;9.00;;;;;;;-141.50;100.00;63355.56;5097621;28;20051;-79
2022/04/17 04:21:23;;;;;;;18.73;9.38;;;;;;;-141.50;100.00;63355.56;5097237;28;20372;-80
2022/04/17 04:23:49;;;;;;;18.38;9.15;;;;;;;-141.50;100.00;63355.56;5096677;28;20052;-79
2022/04/17 04:26:16;;;;;;;16.75;9.15;;;;;;;-141.50;100.00;63355.56;5097623;28;20130;-80
2022/04/17 04:28:42;;;;;;;18.70;9.23;;;;;;;-141.50;100.00;63355.56;5097210;28;20048;-78
2022/04/17 04:31:10;;;;;;;17.30;8.38;;;;;;;-141.50;100.00;63355.56;5093583;28;20134;-77
2022/04/17 04:33:41;;;;;;;18.98;9.63;;;;;;;-141.50;100.00;63355.56;5103361;28;20078;-80
2022/04/17 04:36:11;;;;;;;19.27;8.55;;;;;;;-141.50;100.00;63355.56;5103115;28;20055;-79
2022/04/17 04:38:39;;;;;;;26.13;11.50;;;;;;;-141.50;100.00;63355.56;5104346;28;20127;-78
2022/04/17 04:41:09;;;;;;;18.33;9.60;;;;;;;-141.50;100.00;63355.56;5102242;28;20120;-80
2022/04/17 04:43:38;;;;;;;19.10;9.65;;;;;;;-141.50;100.00;63355.56;5102367;28;20062;-81
2022/04/17 04:46:07;;;;;;;19.83;10.13;;;;;;;-141.50;100.00;63355.56;5101402;28;20078;-81
2022/04/17 04:51:22;;;;;;;19.10;9.95;;;;;;;-141.50;100.00;63355.56;5099540;28;20098;-79
2022/04/17 04:53:49;;;;;;;18.70;10.02;;;;;;;-141.50;100.00;63355.56;5101016;28;20411;-80
2022/04/17 04:56:17;;;;;;;22.80;10.50;;;;;;;-141.50;100.00;63355.56;5099474;28;20044;-80
2022/04/17 04:58:44;;;;;;;18.50;10.30;;;;;;;-141.50;100.00;63355.56;5111063;28;20040;-80
2022/04/17 05:01:11;;;;;;;25.73;10.55;;;;;;;-141.50;100.00;63355.56;5107553;28;20158;-79
2022/04/17 05:03:39;;;;;;;21.10;10.40;;;;;;;-141.50;100.00;63355.56;5101023;28;20058;-81
2022/04/17 05:06:06;;;;;;;22.42;10.27;;;;;;;-141.50;100.00;63355.56;5091839;28;20048;-82
2022/04/17 05:08:32;;;;;;;19.05;9.60;;;;;;;-141.50;100.00;63355.56;5100374;28;20052;-79
2022/04/17 05:10:59;;;;;;;20.70;9.43;;;;;;;-141.50;100.00;63355.56;5096079;28;20075;-78
2022/04/17 05:13:26;;;;;;;20.95;9.88;;;;;;;-141.50;100.00;63355.56;5094947;28;20056;-79
2022/04/17 05:15:52;;;;;;;22.88;10.23;;;;;;;-141.50;100.00;63355.56;5094667;28;20052;-80
2022/04/17 05:18:19;;;;;;;17.90;9.30;;;;;;;-141.50;100.00;63355.56;5097361;28;20052;-82
2022/04/17 05:20:46;;;;;;;17.88;9.43;;;;;;;-141.50;100.00;63355.56;5096465;28;20076;-81
2022/04/17 05:23:19;;;;;;;16.77;8.90;;;;;;;-141.50;100.00;63355.56;5102563;28;20052;-80
2022/04/17 05:25:48;;;;;;;19.23;9.73;;;;;;;-141.50;100.00;63355.56;5098931;28;20068;-79
2022/04/17 05:28:15;;;;;;;19.92;9.73;;;;;;;-141.50;100.00;63355.56;5093226;28;20052;-80
2022/04/17 05:30:43;;;;;;;20.55;10.50;;;;;;;-141.50;100.00;63355.56;5093890;28;20070;-78
2022/04/17 05:33:10;;;;;;;19.10;10.45;;;;;;;-141.50;100.00;63355.56;5101198;28;20052;-80
2022/04/17 05:35:37;;;;;;;18.40;9.13;;;;;;;-141.50;100.00;63355.56;5095632;28;20055;-79
2022/04/17 05:38:05;;;;;;;18.17;9.25;;;;;;;-141.50;100.00;63355.56;5095725;28;20117;-78
2022/04/17 05:40:37;;;;;;;21.38;9.32;;;;;;;-141.50;100.00;63355.56;5092123;28;20079;-80
2022/04/17 05:43:04;;;;;;;18.02;8.82;;;;;;;-141.50;100.00;63355.56;5098231;28;20080;-80
2022/04/17 05:45:32;;;;;;;17.85;9.25;;;;;;;-141.50;100.00;63355.56;5098156;28;20090;-81
2022/04/17 05:48:00;;;;;;;15.52;8.57;;;;;;;-141.50;100.00;63355.56;5097585;28;20058;-79
2022/04/17 05:50:28;;;;;;;15.30;7.93;;;;;;;-141.50;100.00;63355.56;5099880;28;20077;-79
2022/04/17 05:52:55;;;;;;;13.68;7.20;;;;;;;-141.50;100.00;63355.56;5096528;28;20599;-80
2022/04/17 05:55:22;;;;;;;13.90;7.53;;;;;;;-141.50;100.00;63355.56;5094416;28;20060;-79
2022/04/17 05:57:49;;;;;;;13.05;7.05;;;;;;;-141.50;100.00;63355.56;5095769;28;20075;-80
2022/04/17 06:00:16;;;;;;;13.90;6.70;;;;;;;-141.50;100.00;63355.56;5096256;28;20048;-81
2022/04/17 06:02:46;;;;;;;11.10;6.90;;;;;;;-141.50;100.00;63355.56;5094713;28;20048;-80
2022/04/17 06:05:14;;;;;;;16.85;8.18;;;;;;;-141.50;100.00;63355.56;5097855;28;20071;-81
2022/04/17 06:07:41;;;;;;;18.13;9.00;;;;;;;-141.50;100.00;63355.56;5086402;28;20056;-80
2022/04/17 06:10:10;;;;;;;19.33;10.13;;;;;;;-141.50;100.00;63355.56;5084534;28;20055;-81
2022/04/17 06:12:37;;;;;;;26.48;12.38;;;;;;;-141.50;100.00;63355.56;5086999;28;20500;-79
2022/04/17 06:15:05;;;;;;;20.85;9.98;;;;;;;-141.50;100.00;63355.56;5087397;28;20048;-83
2022/04/17 06:17:39;;;;;;;11.60;6.95;;;;;;;-141.50;100.00;63355.56;5083538;28;20051;-80
2022/04/17 06:20:10;;;;;;;12.38;6.47;;;;;;;-141.50;100.00;63355.56;5079690;28;20067;-81
2022/04/17 06:22:37;;;;;;;11.95;6.30;;;;;;;-141.50;100.00;63355.56;5081679;28;20040;-79
2022/04/17 06:25:09;;;;;;;13.38;7.07;;;;;;;-141.50;100.00;63355.56;5075360;28;20361;-78
2022/04/17 06:27:39;;;;;;;13.70;6.90;;;;;;;-141.50;100.00;63355.56;5084861;28;20120;-80
2022/04/17 06:30:07;;;;;;;14.55;6.72;;;;;;;-141.50;100.00;63355.56;5085201;28;20632;-79
2022/04/17 06:32:37;;;;;;;13.60;6.40;;;;;;;-141.50;100.00;63355.56;5077402;28;20459;-78
2022/04/17 06:35:04;;;;;;;17.08;6.70;;;;;;;-141.50;100.00;63355.56;5078004;28;20060;-78
2022/04/17 06:37:31;;;;;;;11.50;6.13;;;;;;;-141.50;100.00;63355.56;5081409;28;20077;-79
2022/04/17 06:39:58;;;;;;;16.25;6.53;;;;;;;-141.50;100.00;63355.56;5082839;28;20052;-81
2022/04/17 06:42:24;;;;;;;12.40;6.47;;;;;;;-141.50;100.00;63355.56;5083579;28;20110;-78
2022/04/17 06:44:51;;;;;;;13.73;6.55;;;;;;;-141.50;100.00;63355.56;5073516;28;20400;-80
2022/04/17 06:47:18;;;;;;;17.10;8.25;;;;;;;-141.50;100.00;63355.56;5075182;28;20048;-80
2022/04/17 06:49:46;;;;;;;15.23;6.78;;;;;;;-141.50;100.00;63355.56;5076410;28;20361;-80
2022/04/17 06:52:12;;;;;;;17.65;8.77;;;;;;;-141.50;100.00;63355.56;5075368;28;20064;-80
2022/04/17 06:54:39;;;;;;;19.73;9.60;;;;;;;-141.50;100.00;63355.56;5071837;28;20064;-81
2022/04/17 06:57:06;;;;;;;19.95;8.93;;;;;;;-141.50;100.00;63355.56;5078713;28;20117;-80
2022/04/17 06:59:33;;;;;;;33.50;13.73;;;;;;;-141.50;100.00;63355.56;5083242;28;20048;-80
2022/04/17 07:02:00;;;;;;;15.23;7.45;;;;;;;-141.50;100.00;63355.56;5079193;28;20040;-80
2022/04/17 07:04:28;;;;;;;15.05;6.88;;;;;;;-141.50;100.00;63355.56;5083606;28;20055;-81
2022/04/17 07:06:54;;;;;;;10.82;5.78;;;;;;;-141.50;100.00;63355.56;5078020;28;20048;-81
2022/04/17 07:09:21;;;;;;;15.63;6.28;;;;;;;-141.50;100.00;63355.56;5082807;28;20081;-81
2022/04/17 07:11:48;;;;;;;10.32;5.82;;;;;;;-141.50;100.00;63355.56;5084872;28;20040;-82
2022/04/17 07:14:16;;;;;;;14.50;6.45;;;;;;;-141.50;100.00;63355.56;5084436;28;20048;-82
2022/04/17 07:16:43;;;;;;;9.25;5.35;;;;;;;-141.50;100.00;63355.56;5083189;28;20055;-81
2022/04/17 07:19:09;;;;;;;14.85;7.47;;;;;;;-141.50;100.00;63355.56;5085560;28;20049;-80
2022/04/17 07:21:37;;;;;;;13.65;6.72;;;;;;;-141.50;100.00;63355.56;5091842;28;20040;-83
2022/04/17 07:24:07;;;;;;;12.25;5.85;;;;;;;-141.50;100.00;63355.56;5092220;28;20044;-82
2022/04/17 07:26:33;;;;;;;13.73;6.13;;;;;;;-141.50;100.00;63355.56;5095623;28;20063;-82
2022/04/17 07:29:00;;;;;;;10.57;5.78;;;;;;;-141.50;100.00;63355.56;5096531;28;20043;-80
2022/04/17 07:31:29;;;;;;;9.68;5.85;;;;;;;-141.50;100.00;63355.56;5107098;28;20071;-81
2022/04/17 07:33:55;;;;;;;14.82;5.95;;;;;;;-141.50;100.00;63355.56;5107457;28;20048;-81
2022/04/17 07:36:22;;;;;;;12.88;5.97;;;;;;;-141.50;100.00;63355.56;5102547;28;20051;-84
2022/04/17 07:38:48;;;;;;;12.40;5.22;;;;;;;-141.50;100.00;63355.56;5109249;28;20096;-83
2022/04/17 07:41:15;;;;;;;10.52;4.97;;;;;;;-141.50;100.00;63355.56;5101620;28;20043;-83
2022/04/17 07:43:41;;;;;;;13.20;5.80;;;;;;;-141.50;100.00;63355.56;5103024;28;20040;-82
2022/04/17 07:46:09;;;;;;;12.10;5.70;;;;;;;-141.50;100.00;63355.56;5104592;28;20044;-85
2022/04/17 07:48:35;;;;;;;15.27;5.95;;;;;;;-141.50;100.00;63355.56;5094895;28;20177;-82
2022/04/17 07:51:02;;;;;;;12.70;5.95;;;;;;;-141.50;100.00;63355.56;5096959;28;20048;-81
2022/04/17 07:53:29;;;;;;;11.50;5.72;;;;;;;-141.50;100.00;63355.56;5094444;28;20117;-83
2022/04/17 07:55:56;;;;;;;11.80;5.45;;;;;;;-141.50;100.00;63355.56;5086840;28;20043;-83
2022/04/17 07:58:30;;;;;;;11.02;5.15;;;;;;;-141.50;100.00;63355.56;5099639;28;20039;-84
2022/04/17 08:00:59;;;;;;;9.70;5.43;;;;;;;-141.50;100.00;63355.56;5096400;28;20036;-84
2022/04/17 08:05:55;;;;;;;14.32;5.30;;;;;;;-141.50;100.00;63355.56;5105566;28;20485;-81
2022/04/17 08:08:22;;;;;;;10.23;4.75;;;;;;;-141.50;100.00;63355.56;5090827;28;20064;-81
2022/04/17 08:10:49;;;;;;;7.10;4.00;;;;;;;-141.50;100.00;63355.56;5090938;28;20067;-80
2022/04/17 08:13:16;;;;;;;8.80;4.72;;;;;;;-141.50;100.00;63355.56;5094812;28;20049;-81
2022/04/17 08:15:42;;;;;;;9.30;4.13;;;;;;;-141.50;100.00;63355.56;5104460;28;20078;-81
2022/04/17 08:18:09;;;;;;;12.48;4.60;;;;;;;-141.50;100.00;63355.56;5106002;28;20048;-82
2022/04/17 08:20:36;;;;;;;9.75;4.47;;;;;;;-141.50;100.00;63355.56;5102912;28;20040;-81
2022/04/17 08:23:02;;;;;;;9.43;4.78;;;;;;;-141.50;100.00;63355.56;5100208;28;20040;-81
2022/04/17 08:25:29;;;;;;;11.18;4.50;;;;;;;-141.50;100.00;63355.56;5099293;28;20056;-82
2022/04/17 08:27:56;;;;;;;10.25;3.75;;;;;;;-141.50;100.00;63355.56;5102743;28;20043;-81
2022/04/17 08:30:26;;;;;;;9.50;4.43;;;;;;;-141.50;100.00;63355.56;5100626;28;20059;-81
2022/04/17 08:32:56;;;;;;;7.18;3.60;;;;;;;-141.50;100.00;63355.56;5097896;28;20048;-81
2022/04/17 08:35:23;;;;;;;6.45;3.47;;;;;;;-141.50;100.00;63355.56;5101162;28;20044;-80
2022/04/17 08:37:50;;;;;;;9.00;3.00;;;;;;;-141.50;100.00;63355.56;5093924;28;20072;-79
2022/04/17 08:40:17;;;;;;;7.53;3.20;;;;;;;-141.50;100.00;63355.56;5101426;28;20052;-81
2022/04/17 08:42:44;;;;;;;6.60;3.10;;;;;;;-141.50;100.00;63355.56;5100020;28;20079;-79
2022/04/17 08:45:12;;;;;;;10.38;3.20;;;;;;;-141.50;100.00;63355.56;5100330;28;20421;-80
2022/04/17 08:47:40;;;;;;;10.05;3.47;;;;;;;-141.50;100.00;63355.56;5097574;28;20101;-80
2022/04/17 08:50:16;;;;;;;9.18;3.20;;;;;;;-141.50;100.00;63355.56;5099995;28;20051;-79
2022/04/17 08:52:46;;;;;;;7.00;2.80;;;;;;;-141.50;100.00;63355.56;5099389;28;20051;-81
2022/04/17 08:55:13;;;;;;;6.95;2.58;;;;;;;-141.50;100.00;63355.56;5101185;28;20201;-81
2022/04/17 08:57:40;;;;;;;4.80;2.58;;;;;;;-141.50;100.00;63355.56;5100281;28;20074;-83
2022/04/17 09:00:10;;;;;;;3.85;2.30;;;;;;;-141.50;100.00;63355.56;5106015;28;20102;-82
2022/04/17 09:02:40;;;;;;;6.22;2.30;;;;;;;-141.50;100.00;63355.56;5100123;28;20488;-81
2022/04/17 09:05:10;;;;;;;6.53;2.33;;;;;;;-141.50;100.00;63355.56;5098505;28;20052;-79
2022/04/17 09:07:41;;;;;;;7.57;2.70;;;;;;;-141.50;100.00;63355.56;5094821;28;20109;-78
2022/04/17 09:10:08;;;;;;;4.65;2.60;;;;;;;-141.50;100.00;63355.56;5100198;28;20466;-79
2022/04/17 09:12:36;;;;;;;3.90;2.28;;;;;;;-141.50;100.00;63355.56;5098473;28;20063;-81
2022/04/17 09:15:03;;;;;;;4.68;2.45;;;;;;;-141.50;100.00;63355.56;5098848;28;20574;-79
2022/04/17 09:17:31;;;;;;;6.05;2.38;;;;;;;-141.50;100.00;63355.56;5095515;28;20228;-78
2022/04/17 09:19:58;;;;;;;3.97;2.33;;;;;;;-141.50;100.00;63355.56;5101084;28;20496;-78
2022/04/17 09:22:25;;;;;;;6.70;2.88;;;;;;;-141.50;100.00;63355.56;5095903;28;20143;-80
2022/04/17 09:24:52;;;;;;;7.78;2.92;;;;;;;-141.50;100.00;63355.56;5094378;28;20052;-79
2022/04/17 09:27:25;;;;;;;8.02;2.65;;;;;;;-141.50;100.00;63355.56;5096884;28;20169;-80
2022/04/17 09:29:52;;;;;;;7.65;2.42;;;;;;;-141.50;100.00;63355.56;5103038;28;20059;-81
2022/04/17 09:32:20;;;;;;;6.32;2.70;;;;;;;-141.50;100.00;63355.56;5102367;28;20046;-79
2022/04/17 09:34:50;;;;;;;5.03;2.28;;;;;;;-141.50;100.00;63355.56;5099142;28;20083;-81
2022/04/17 09:37:18;;;;;;;2.72;1.50;;;;;;;-141.50;100.00;63355.56;5100546;28;20059;-79
2022/04/17 09:39:46;;;;;;;3.65;1.80;;;;;;;-141.50;100.00;63355.56;5095377;28;20090;-81
2022/04/17 09:42:19;;;;;;;5.38;1.73;;;;;;;-141.50;100.00;63355.56;5102390;28;20048;-83
2022/04/17 09:44:47;;;;;;;3.63;1.63;;;;;;;-141.50;100.00;63355.56;5105737;28;20093;-83
2022/04/17 09:47:18;;;;;;;3.97;1.60;;;;;;;-141.50;100.00;63355.56;5112136;28;20055;-80
2022/04/17 09:49:54;;;;;;;4.75;1.60;;;;;;;-141.50;100.00;63355.56;5103739;28;20515;-83
2022/04/17 09:52:23;;;;;;;6.35;2.10;;;;;;;-141.50;100.00;63355.56;5106600;28;20044;-80
2022/04/17 09:54:50;;;;;;;4.32;1.90;;;;;;;-141.50;100.00;63355.56;5101152;28;20055;-83
2022/04/17 09:57:28;;;;;;;5.05;1.90;;;;;;;-141.50;100.00;63355.56;5104095;28;20101;-79
2022/04/17 09:59:57;;;;;;;4.53;1.88;;;;;;;-141.50;100.00;63355.56;5102164;28;20066;-82
2022/04/17 10:02:25;;;;;;;5.13;1.63;;;;;;;-141.50;100.00;63355.56;5104255;28;20074;-81
2022/04/17 10:04:53;;;;;;;8.88;2.40;;;;;;;-141.50;100.00;63355.56;5114061;28;20052;-79
2022/04/17 10:07:22;;;;;;;3.65;2.08;;;;;;;-141.50;100.00;63355.56;5099952;28;20052;-82
2022/04/17 10:09:49;;;;;;;3.80;1.80;;;;;;;-141.50;100.00;63355.56;5100966;28;20067;-84
2022/04/17 10:12:19;;;;;;;3.22;1.73;;;;;;;-141.50;100.00;63355.56;5106203;28;20070;-83
2022/04/17 10:14:48;;;;;;;4.05;2.10;;;;;;;-141.50;100.00;63355.56;5107934;28;20048;-80
2022/04/17 10:17:20;;;;;;;3.38;1.55;;;;;;;-141.50;100.00;63355.56;5101814;28;20495;-81
2022/04/17 10:19:49;;;;;;;3.97;1.55;;;;;;;-141.50;100.00;63355.56;5096885;28;20105;-77
2022/04/17 10:22:18;;;;;;;3.75;1.60;;;;;;;-141.50;100.00;63355.56;5093778;28;20044;-79
2022/04/17 10:24:51;;;;;;;2.85;1.50;;;;;;;-141.50;100.00;63355.56;5096101;28;20369;-81
2022/04/17 10:27:24;;;;;;;2.75;1.38;;;;;;;-141.50;100.00;63355.56;5103371;28;20052;-80
2022/04/17 10:30:10;;;;;;;4.28;1.58;;;;;;;-141.50;100.00;63355.56;5101197;28;20048;-79
2022/04/17 10:33:03;;;;;;;1.92;1.20;;;;;;;-141.50;100.00;63355.56;5103989;28;20040;-79
2022/04/17 10:35:48;;;;;;;5.13;1.80;;;;;;;-141.50;100.00;63355.56;5100042;28;20094;-82
2022/04/17 10:38:31;;;;;;;2.13;1.53;;;;;;;-141.50;100.00;63355.56;5106077;28;20412;-81
2022/04/17 10:41:09;;;;;;;3.70;1.48;;;;;;;-141.50;100.00;63355.56;5105186;28;20289;-82
2022/04/17 10:43:42;;;;;;;4.05;1.67;;;;;;;-141.50;100.00;63355.56;5105769;28;20044;-81
2022/04/17 10:46:21;;;;;;;3.08;1.40;;;;;;;-141.50;100.00;63355.56;5104233;28;20078;-81
2022/04/17 10:48:57;;;;;;;4.22;1.67;;;;;;;-141.50;100.00;63355.56;5104488;28;20056;-79
2022/04/17 10:51:24;;;;;;;3.75;1.70;;;;;;;-141.50;100.00;63355.56;5101134;28;20543;-82
2022/04/17 10:53:50;;;;;;;2.70;1.42;;;;;;;-141.50;100.00;63355.56;5099449;28;20097;-80
2022/04/17 10:56:19;;;;;;;2.92;1.60;;;;;;;-141.50;100.00;63355.56;5101973;28;20047;-81
2022/04/17 10:58:51;;;;;;;3.28;1.60;;;;;;;-141.50;100.00;63355.56;5101761;28;20051;-79
2022/04/17 11:01:40;;;;;;;4.03;1.92;;;;;;;-141.50;100.00;63355.56;5097801;28;20044;-79
2022/04/17 11:04:25;;;;;;;5.93;1.92;;;;;;;-141.50;100.00;63355.56;5099430;28;20058;-79
2022/04/17 11:06:54;;;;;;;2.33;1.60;;;;;;;-141.50;100.00;63355.56;5101614;28;20051;-82
2022/04/17 11:09:23;;;;;;;4.35;1.77;;;;;;;-141.50;100.00;63355.56;5112496;28;20055;-83
2022/04/17 11:11:50;;;;;;;3.95;2.05;;;;;;;-141.50;100.00;63355.56;5106767;28;20047;-81
2022/04/17 11:14:23;;;;;;;3.08;1.77;;;;;;;-141.50;100.00;63355.56;5099914;28;20051;-81
2022/04/17 11:16:54;;;;;;;3.28;1.90;;;;;;;-141.50;100.00;63355.56;5097770;28;20044;-81
2022/04/17 11:19:23;;;;;;;4.18;2.30;;;;;;;-141.50;100.00;63355.56;5096763;28;20044;-81
2022/04/17 11:21:52;;;;;;;3.75;2.00;;;;;;;-141.50;100.00;63355.56;5099716;28;20048;-81
2022/04/17 11:24:20;;;;;;;3.97;2.08;;;;;;;-141.50;100.00;63355.56;5100470;28;20048;-81
2022/04/17 11:26:54;;;;;;;3.65;2.40;;;;;;;-141.50;100.00;63355.56;5099298;28;20113;-82